Time;durP1;ratioP1;P1;durP2;ratioP2;P2;SDS_P1;SDS_P2;PMS_P1;PMS_P2;Temp;Humidity;BMP_temperature;BMP_pressure;BME280_temperature;BME280_humidity;BME280_pressure;Samples;Min_cycle;Max_cycle;Signal;HPM_P1;HPM_P2
2022/06/20 00:01:35;;;;;;;5.23;3.07;;;15.60;99.90;;;;;;4880692;29;20211;-60
2022/06/20 00:04:01;;;;;;;7.77;3.30;;;15.50;99.90;;;;;;4880283;29;20210;-59
2022/06/20 00:06:27;;;;;;;3.27;2.70;;;15.50;99.90;;;;;;4880443;29;20194;-60
2022/06/20 00:08:53;;;;;;;10.47;3.53;;;15.60;99.90;;;;;;4880049;29;20550;-60
2022/06/20 00:11:30;;;;;;;6.57;2.80;;;15.50;99.90;;;;;;4865156;29;20298;-60
2022/06/20 00:13:56;;;;;;;5.10;2.97;;;15.50;99.90;;;;;;4859470;29;20212;-60
2022/06/20 00:16:23;;;;;;;6.27;3.07;;;15.50;99.90;;;;;;4860724;29;20638;-61
2022/06/20 00:18:50;;;;;;;7.67;3.43;;;15.50;99.90;;;;;;4843271;29;20189;-59
2022/06/20 00:21:19;;;;;;;18.33;4.87;;;15.50;99.90;;;;;;4860340;29;20669;-59
2022/06/20 00:23:46;;;;;;;7.97;3.13;;;15.60;99.90;;;;;;4861312;29;20180;-59
2022/06/20 00:26:11;;;;;;;11.33;3.57;;;15.60;99.90;;;;;;4861379;29;20258;-60
2022/06/20 00:28:37;;;;;;;7.30;3.20;;;15.60;99.90;;;;;;4844788;29;20675;-60
2022/06/20 00:31:04;;;;;;;5.03;2.93;;;15.50;99.90;;;;;;4843115;29;20245;-60
2022/06/20 00:33:30;;;;;;;5.20;3.10;;;15.50;99.90;;;;;;4842999;29;20201;-60
2022/06/20 00:35:57;;;;;;;6.77;2.93;;;15.50;99.90;;;;;;4842346;29;20195;-60
2022/06/20 00:38:23;;;;;;;7.33;3.50;;;15.50;99.90;;;;;;4842713;29;20216;-60
2022/06/20 00:40:53;;;;;;;14.70;3.87;;;15.50;99.90;;;;;;4842402;29;20643;-60
2022/06/20 00:43:41;;;;;;;10.17;3.90;;;15.50;99.90;;;;;;4842714;29;20194;-60
2022/06/20 00:46:18;;;;;;;8.00;3.57;;;15.50;99.90;;;;;;4842620;29;20178;-60
2022/06/20 00:49:03;;;;;;;5.87;3.27;;;15.40;99.90;;;;;;4842473;29;20281;-61
2022/06/20 00:51:36;;;;;;;7.73;3.30;;;15.40;99.90;;;;;;4842365;29;20291;-61
2022/06/20 00:54:23;;;;;;;8.43;3.93;;;15.40;99.90;;;;;;4842151;29;20193;-60
2022/06/20 00:56:58;;;;;;;7.03;2.97;;;15.40;99.90;;;;;;4857837;29;20194;-60
2022/06/20 00:59:32;;;;;;;6.57;3.20;;;15.40;99.90;;;;;;4835944;29;20595;-60
2022/06/20 01:02:00;;;;;;;7.10;2.90;;;15.40;99.90;;;;;;4827497;29;20226;-60
2022/06/20 01:04:38;;;;;;;5.30;3.30;;;15.40;99.90;;;;;;4823803;29;20614;-60
2022/06/20 01:07:10;;;;;;;10.33;3.20;;;15.50;99.90;;;;;;4823847;29;20201;-60
2022/06/20 01:09:42;;;;;;;5.20;3.30;;;15.40;99.90;;;;;;4825766;29;20216;-59
2022/06/20 01:12:13;;;;;;;7.13;3.00;;;15.40;99.90;;;;;;4841890;29;20269;-60
2022/06/20 01:14:39;;;;;;;5.20;3.10;;;15.30;99.90;;;;;;4842019;29;20198;-60
2022/06/20 01:17:16;;;;;;;4.83;3.17;;;15.30;99.90;;;;;;4841838;29;20186;-60
2022/06/20 01:19:49;;;;;;;8.00;2.80;;;15.20;99.90;;;;;;4842191;29;20191;-60
2022/06/20 01:22:42;;;;;;;7.77;3.17;;;15.20;99.90;;;;;;4841682;29;20184;-60
2022/06/20 01:25:15;;;;;;;10.80;3.30;;;15.20;99.90;;;;;;4841623;29;20189;-60
2022/06/20 01:27:44;;;;;;;8.03;3.40;;;15.20;99.90;;;;;;4841836;29;20192;-60
2022/06/20 01:30:11;;;;;;;4.83;3.50;;;15.20;99.90;;;;;;4851545;29;20308;-60
2022/06/20 01:32:38;;;;;;;4.60;3.00;;;15.20;99.90;;;;;;4860371;29;20219;-60
2022/06/20 01:35:08;;;;;;;9.17;3.20;;;15.20;99.90;;;;;;4859896;29;20191;-60
2022/06/20 01:37:38;;;;;;;5.27;2.83;;;15.20;99.90;;;;;;4859831;29;20284;-60
2022/06/20 01:40:11;;;;;;;13.33;3.90;;;15.20;99.90;;;;;;4859960;29;20264;-60
2022/06/20 01:42:39;;;;;;;18.97;4.40;;;15.10;99.90;;;;;;4860033;29;20201;-60
2022/06/20 01:45:57;;;;;;;4.13;2.90;;;15.10;99.90;;;;;;4859855;29;20185;-60
2022/06/20 01:48:03;;;;;;;10.17;3.07;;;15.10;99.90;;;;;;4859418;29;20200;-60
2022/06/20 01:50:30;;;;;;;7.40;3.33;;;15.10;99.90;;;;;;4859947;29;20205;-60
2022/06/20 01:52:56;;;;;;;15.27;3.87;;;15.10;99.90;;;;;;4859575;29;20630;-60
2022/06/20 01:55:25;;;;;;;8.53;3.70;;;15.10;99.90;;;;;;4864599;29;20192;-60
2022/06/20 01:57:54;;;;;;;5.17;3.10;;;15.10;99.90;;;;;;4877982;29;20199;-60
2022/06/20 02:00:22;;;;;;;10.10;3.40;;;15.10;99.90;;;;;;4878368;29;20197;-60
2022/06/20 02:02:58;;;;;;;23.80;5.17;;;15.10;99.90;;;;;;4878058;29;20213;-60
2022/06/20 02:05:27;;;;;;;7.60;3.03;;;15.10;99.90;;;;;;4878381;29;20270;-60
2022/06/20 02:07:56;;;;;;;4.63;2.97;;;15.10;99.90;;;;;;4877852;29;20201;-60
2022/06/20 02:10:28;;;;;;;4.93;3.30;;;15.20;99.90;;;;;;4870518;29;20300;-60
2022/06/20 02:12:58;;;;;;;6.10;3.13;;;15.20;99.90;;;;;;4859583;29;20200;-60
2022/06/20 02:15:26;;;;;;;8.03;3.53;;;15.20;99.90;;;;;;4859549;29;20344;-60
2022/06/20 02:17:52;;;;;;;9.43;3.87;;;15.30;99.90;;;;;;4843000;29;20201;-61
2022/06/20 02:20:23;;;;;;;10.13;4.07;;;15.30;99.90;;;;;;4859802;29;20213;-60
2022/06/20 02:22:50;;;;;;;15.70;4.40;;;15.30;99.90;;;;;;4859350;29;20218;-59
2022/06/20 02:25:21;;;;;;;6.20;3.57;;;15.30;99.90;;;;;;4859516;29;20268;-59
2022/06/20 02:27:53;;;;;;;8.07;3.63;;;15.30;99.90;;;;;;4859264;29;20184;-60
2022/06/20 02:30:19;;;;;;;14.17;4.40;;;15.30;99.90;;;;;;4859246;29;20654;-60
2022/06/20 02:32:49;;;;;;;5.60;3.73;;;15.20;99.90;;;;;;4859194;29;20185;-60
2022/06/20 02:35:19;;;;;;;8.60;4.00;;;15.20;99.90;;;;;;4859278;29;20183;-60
2022/06/20 02:37:46;;;;;;;16.87;5.67;;;15.20;99.90;;;;;;4859297;29;20192;-60
2022/06/20 02:40:16;;;;;;;15.70;5.13;;;15.20;99.90;;;;;;4858974;29;20320;-59
2022/06/20 02:42:54;;;;;;;9.10;4.17;;;15.20;99.90;;;;;;4863542;29;20181;-60
2022/06/20 02:45:21;;;;;;;5.67;3.87;;;15.20;99.90;;;;;;4862932;29;20710;-60
2022/06/20 02:47:50;;;;;;;7.90;4.20;;;15.20;99.90;;;;;;4863144;29;20182;-60
2022/06/20 02:50:20;;;;;;;21.57;5.60;;;15.20;99.90;;;;;;4862459;29;20564;-60
2022/06/20 02:52:57;;;;;;;15.93;4.93;;;15.20;99.90;;;;;;4862850;29;20198;-60
2022/06/20 02:55:24;;;;;;;13.63;5.20;;;15.30;99.90;;;;;;4867726;29;20195;-62
2022/06/20 02:57:55;;;;;;;12.43;4.13;;;15.30;99.90;;;;;;4881587;29;20184;-60
2022/06/20 03:00:27;;;;;;;19.47;5.40;;;15.40;99.90;;;;;;4881457;29;20190;-60
2022/06/20 03:03:01;;;;;;;20.23;6.83;;;15.40;99.90;;;;;;4881057;29;20213;-61
2022/06/20 03:05:28;;;;;;;11.47;4.80;;;15.40;99.90;;;;;;4881282;29;20656;-60
2022/06/20 03:07:54;;;;;;;11.53;4.53;;;15.50;99.90;;;;;;4881151;29;20276;-60
2022/06/20 03:10:33;;;;;;;9.47;4.73;;;15.50;99.90;;;;;;4856595;29;20618;-60
2022/06/20 03:12:59;;;;;;;9.93;4.43;;;15.60;99.90;;;;;;4862470;29;20189;-61
2022/06/20 03:15:25;;;;;;;15.43;5.30;;;15.60;99.90;;;;;;4862328;29;20256;-60
2022/06/20 03:17:53;;;;;;;10.93;4.47;;;15.60;99.90;;;;;;4862303;29;20195;-60
2022/06/20 03:20:21;;;;;;;6.93;4.67;;;15.70;99.90;;;;;;4862274;29;20192;-60
2022/06/20 03:22:53;;;;;;;8.27;4.90;;;15.70;99.90;;;;;;4862265;29;20193;-60
2022/06/20 03:25:20;;;;;;;8.33;5.10;;;15.60;99.90;;;;;;4862003;29;20664;-60
2022/06/20 03:27:48;;;;;;;17.77;5.43;;;15.70;99.90;;;;;;4862113;29;20650;-60
2022/06/20 03:30:41;;;;;;;9.90;5.20;;;15.70;99.90;;;;;;4861485;29;20251;-61
2022/06/20 03:33:13;;;;;;;9.17;5.03;;;15.80;99.90;;;;;;4858335;29;20211;-59
2022/06/20 03:35:42;;;;;;;21.37;5.87;;;15.80;99.90;;;;;;4861628;29;20305;-60
2022/06/20 03:38:10;;;;;;;15.13;4.77;;;15.80;99.90;;;;;;4861527;29;20190;-60
2022/06/20 03:40:40;;;;;;;11.40;5.47;;;15.90;99.90;;;;;;4844596;29;20190;-60
2022/06/20 03:43:08;;;;;;;12.47;4.70;;;16.00;99.90;;;;;;4861921;29;20316;-60
2022/06/20 03:45:38;;;;;;;8.37;4.43;;;16.00;99.90;;;;;;4862025;29;20248;-59
2022/06/20 03:48:29;;;;;;;6.97;3.90;;;16.10;99.90;;;;;;4861838;29;20197;-59
2022/06/20 03:51:00;;;;;;;12.77;4.67;;;16.20;99.90;;;;;;4861562;29;20282;-66
2022/06/20 03:53:46;;;;;;;19.30;5.47;;;16.30;99.90;;;;;;4861235;29;20191;-61
2022/06/20 03:56:15;;;;;;;23.03;5.50;;;16.50;99.90;;;;;;4872577;29;20533;-61
2022/06/20 03:58:48;;;;;;;11.60;4.67;;;16.60;99.90;;;;;;4880083;29;20190;-61
2022/06/20 04:01:27;;;;;;;9.97;4.50;;;16.70;99.90;;;;;;4879867;29;20212;-61
2022/06/20 04:04:12;;;;;;;7.03;4.13;;;16.70;99.90;;;;;;4879751;29;20176;-61
2022/06/20 04:06:54;;;;;;;7.40;4.07;;;16.80;99.90;;;;;;4880057;29;20262;-59
2022/06/20 04:12:54;;;;;;;11.23;4.97;;;17.00;99.90;;;;;;4810586;29;20214;-60
2022/06/20 04:15:25;;;;;;;15.60;5.23;;;17.20;99.90;;;;;;4840640;29;20186;-60
2022/06/20 04:20:43;;;;;;;12.70;4.60;;;17.40;99.90;;;;;;4842367;29;20220;-61
2022/06/20 04:23:21;;;;;;;26.53;5.93;;;17.50;99.90;;;;;;4842129;29;20651;-60
2022/06/20 04:26:00;;;;;;;7.73;4.33;;;17.60;99.90;;;;;;4842385;29;20265;-64
2022/06/20 04:28:29;;;;;;;24.80;7.50;;;17.80;99.90;;;;;;4842449;29;20186;-60
2022/06/20 04:31:05;;;;;;;10.03;5.33;;;17.80;99.90;;;;;;4826135;29;20258;-61
2022/06/20 04:33:38;;;;;;;12.30;5.13;;;18.00;99.90;;;;;;4823982;29;20193;-60
2022/06/20 04:36:35;;;;;;;14.27;6.03;;;18.10;99.90;;;;;;4807572;29;20183;-61
2022/06/20 04:39:37;;;;;;;13.77;5.90;;;18.20;99.90;;;;;;4823564;29;20255;-61
2022/06/20 04:42:31;;;;;;;18.33;6.07;;;18.30;99.90;;;;;;4823383;29;20542;-60
2022/06/20 04:45:03;;;;;;;12.60;5.20;;;18.30;99.90;;;;;;4806870;29;20202;-61
2022/06/20 04:47:44;;;;;;;9.60;5.50;;;18.40;99.90;;;;;;4823190;29;20679;-60
2022/06/20 04:50:24;;;;;;;25.03;7.03;;;18.50;99.90;;;;;;4823402;29;20217;-61
2022/06/20 04:52:52;;;;;;;16.60;6.00;;;18.60;99.90;;;;;;4823855;29;20186;-62
2022/06/20 04:55:24;;;;;;;21.80;6.03;;;18.80;99.90;;;;;;4834542;29;20186;-63
2022/06/20 04:57:52;;;;;;;9.27;4.50;;;18.90;99.90;;;;;;4841447;29;20185;-62
2022/06/20 05:00:25;;;;;;;20.20;5.93;;;19.00;99.90;;;;;;4841510;29;20216;-64
2022/06/20 05:02:53;;;;;;;25.33;7.57;;;19.10;99.90;;;;;;4841243;29;20192;-63
2022/06/20 05:05:24;;;;;;;12.20;5.83;;;19.20;99.90;;;;;;4837151;29;20190;-63
2022/06/20 05:07:51;;;;;;;19.73;6.18;;;19.30;99.90;;;;;;4841015;29;20190;-63
2022/06/20 05:10:21;;;;;;;15.37;5.57;;;19.40;99.90;;;;;;4840443;29;20274;-63
2022/06/20 05:12:55;;;;;;;15.77;5.50;;;19.50;99.90;;;;;;4840758;29;20266;-62
2022/06/20 05:15:48;;;;;;;13.80;5.72;;;19.50;99.90;;;;;;4838739;29;20298;-61
2022/06/20 05:18:39;;;;;;;8.97;4.73;;;19.50;99.90;;;;;;4833449;29;20528;-67
2022/06/20 05:21:17;;;;;;;13.70;5.37;;;19.60;99.90;;;;;;4840951;29;20266;-83
2022/06/20 05:23:46;;;;;;;10.63;4.93;;;19.70;99.90;;;;;;4835675;29;20277;-86
2022/06/20 05:26:25;;;;;;;18.77;6.15;;;19.90;99.90;;;;;;5149355;27;20592;-61
2022/06/20 05:28:53;;;;;;;9.30;5.45;;;20.00;99.90;;;;;;5129137;28;20709;-60
2022/06/20 05:31:39;;;;;;;8.52;5.70;;;20.10;99.90;;;;;;5128431;28;20580;-61
2022/06/20 05:34:35;;;;;;;9.85;5.80;;;20.20;99.90;;;;;;5128592;28;20580;-60
2022/06/20 05:37:18;;;;;;;15.07;6.18;;;20.30;99.90;;;;;;5129229;28;20195;-62
2022/06/20 05:39:52;;;;;;;13.07;6.47;;;20.40;99.90;;;;;;5128723;28;20172;-61
2022/06/20 05:42:19;;;;;;;9.65;5.82;;;20.40;99.90;;;;;;5128125;28;20655;-62
2022/06/20 05:44:45;;;;;;;16.30;6.63;;;20.50;99.90;;;;;;5127322;28;20241;-70
2022/06/20 05:47:24;;;;;;;24.63;7.63;;;20.50;99.90;;;;;;5127647;28;20198;-68
2022/06/20 05:49:54;;;;;;;28.73;7.25;;;20.60;99.90;;;;;;5127261;28;20231;-70
2022/06/20 05:52:24;;;;;;;16.55;6.97;;;20.80;99.90;;;;;;5127437;28;20195;-68
2022/06/20 05:55:13;;;;;;;20.98;7.20;;;20.90;99.90;;;;;;5126831;28;20271;-70
2022/06/20 05:57:41;;;;;;;28.77;9.23;;;21.00;99.90;;;;;;5127816;28;20226;-60
2022/06/20 06:00:17;;;;;;;16.67;6.75;;;21.10;99.90;;;;;;5127469;28;20646;-60
2022/06/20 06:02:55;;;;;;;9.55;5.93;;;21.30;99.90;;;;;;5107031;28;20526;-61
2022/06/20 06:05:31;;;;;;;14.38;7.68;;;21.40;99.90;;;;;;5126556;28;20219;-64
2022/06/20 06:08:09;;;;;;;15.50;6.07;;;21.50;99.90;;;;;;5128117;28;20654;-62
2022/06/20 06:10:45;;;;;;;22.65;5.88;;;21.60;99.90;;;;;;5128116;28;20199;-61
2022/06/20 06:14:03;;;;;;;31.13;7.82;;;21.80;99.90;;;;;;5127949;28;20187;-62
2022/06/20 06:16:49;;;;;;;14.55;5.88;;;22.00;99.90;;;;;;5104824;28;20266;-61
2022/06/20 06:19:41;;;;;;;13.90;5.57;;;22.10;99.90;;;;;;5127634;28;20737;-62
2022/06/20 06:22:15;;;;;;;17.90;6.25;;;22.20;99.90;;;;;;5127469;28;20628;-61
2022/06/20 06:24:44;;;;;;;18.20;5.38;;;22.30;99.90;;;;;;5127688;28;20342;-63
2022/06/20 06:27:19;;;;;;;16.67;5.38;;;22.50;99.90;;;;;;5127481;28;20283;-64
2022/06/20 06:29:51;;;;;;;10.48;5.60;;;22.60;99.90;;;;;;5127704;28;20195;-59
2022/06/20 06:32:25;;;;;;;16.73;4.78;;;22.80;99.90;;;;;;5127854;28;20569;-59
2022/06/20 06:35:11;;;;;;;14.18;4.57;;;22.80;99.90;;;;;;5127639;28;20175;-61
2022/06/20 06:38:04;;;;;;;14.48;5.82;;;22.90;99.90;;;;;;5114039;28;20179;-59
2022/06/20 06:40:38;;;;;;;9.65;4.63;;;22.90;99.90;;;;;;5113198;28;20632;-61
2022/06/20 06:43:23;;;;;;;7.47;4.45;;;22.80;99.90;;;;;;5112909;28;20211;-67
2022/06/20 06:45:52;;;;;;;9.73;4.72;;;22.90;99.90;;;;;;5112543;28;20204;-60
2022/06/20 06:48:35;;;;;;;14.13;5.22;;;23.00;99.90;;;;;;5132685;27;20213;-59
2022/06/20 06:51:09;;;;;;;8.60;4.80;;;23.10;99.90;;;;;;5133071;27;20176;-60
2022/06/20 06:53:48;;;;;;;12.13;4.40;;;23.10;99.90;;;;;;5133827;27;20199;-60
2022/06/20 06:56:21;;;;;;;11.80;5.78;;;23.20;99.90;;;;;;5102272;28;20205;-63
2022/06/20 06:58:53;;;;;;;14.95;6.35;;;23.40;99.90;;;;;;5113895;28;20164;-61
2022/06/20 07:01:34;;;;;;;18.92;5.15;;;23.50;99.90;;;;;;5112414;28;20177;-66
2022/06/20 07:04:28;;;;;;;10.07;5.38;;;23.60;99.90;;;;;;5092521;28;20204;-64
2022/06/20 07:07:21;;;;;;;11.95;5.22;;;23.70;99.90;;;;;;5113169;28;20180;-62
2022/06/20 07:09:53;;;;;;;19.05;6.05;;;23.80;99.90;;;;;;5096417;28;20247;-61
2022/06/20 07:12:36;;;;;;;12.48;5.70;;;24.00;99.90;;;;;;5113526;28;20314;-61
2022/06/20 07:15:13;;;;;;;15.65;5.10;;;24.10;99.90;;;;;;5113222;28;20247;-60
2022/06/20 07:18:01;;;;;;;16.23;5.82;;;24.10;99.90;;;;;;5112630;28;20651;-60
2022/06/20 07:20:36;;;;;;;19.98;6.18;;;24.20;99.90;;;;;;5094707;28;20509;-61
2022/06/20 07:23:06;;;;;;;17.45;6.38;;;24.40;99.90;;;;;;5112246;28;20362;-61
2022/06/20 07:25:42;;;;;;;11.27;5.30;;;24.40;99.90;;;;;;5111679;28;20687;-61
2022/06/20 07:28:39;;;;;;;11.57;5.43;;;24.50;99.90;;;;;;5111999;28;20195;-65
2022/06/20 07:31:27;;;;;;;17.65;6.35;;;24.60;99.90;;;;;;5092511;28;20188;-71
2022/06/20 07:34:28;;;;;;;12.07;5.60;;;24.80;99.70;;;;;;5092767;28;20220;-61
2022/06/20 07:37:24;;;;;;;14.00;5.70;;;24.90;99.60;;;;;;5079038;28;20652;-66
2022/06/20 07:40:10;;;;;;;13.80;6.28;;;25.10;99.10;;;;;;5107987;28;20197;-62
2022/06/20 07:42:50;;;;;;;11.57;5.57;;;25.00;98.90;;;;;;5112774;28;20532;-62
2022/06/20 07:45:26;;;;;;;13.30;6.28;;;25.10;98.90;;;;;;5112297;28;20222;-59
2022/06/20 07:47:56;;;;;;;16.60;4.82;;;25.20;99.10;;;;;;5111742;28;20206;-58
2022/06/20 07:50:39;;;;;;;10.05;5.22;;;25.30;98.00;;;;;;5112228;28;20225;-59
2022/06/20 07:53:09;;;;;;;12.60;5.00;;;25.40;98.10;;;;;;5112559;28;20260;-67
2022/06/20 07:55:40;;;;;;;15.95;5.20;;;25.40;97.70;;;;;;5112638;28;20192;-71
2022/06/20 07:58:12;;;;;;;18.48;5.85;;;25.30;97.80;;;;;;5112544;28;20169;-66
2022/06/20 08:00:51;;;;;;;16.70;4.80;;;25.40;98.00;;;;;;5094551;28;20198;-64
2022/06/20 08:03:34;;;;;;;12.35;5.20;;;25.50;97.30;;;;;;5112659;28;20194;-68
2022/06/20 08:06:13;;;;;;;9.88;4.63;;;25.70;97.50;;;;;;5112343;28;20239;-61
2022/06/20 08:08:52;;;;;;;23.25;5.80;;;25.90;96.60;;;;;;5112465;28;20187;-69
2022/06/20 08:11:41;;;;;;;13.98;6.68;;;26.10;96.60;;;;;;5111570;28;20183;-65
2022/06/20 08:14:45;;;;;;;21.60;5.15;;;26.30;96.50;;;;;;5111738;28;20574;-66
2022/06/20 08:17:12;;;;;;;15.45;5.03;;;26.50;95.90;;;;;;5122541;27;20197;-72
2022/06/20 08:19:40;;;;;;;9.60;4.13;;;26.60;95.00;;;;;;5132387;27;20186;-74
2022/06/20 08:22:17;;;;;;;11.07;5.10;;;26.50;94.60;;;;;;5113541;27;20176;-67
2022/06/20 08:24:52;;;;;;;7.32;4.55;;;26.30;93.50;;;;;;5111980;28;20670;-70
2022/06/20 08:27:49;;;;;;;16.83;4.38;;;26.20;93.30;;;;;;5111138;28;20711;-59
2022/06/20 08:30:37;;;;;;;12.32;4.50;;;26.30;92.80;;;;;;5101945;28;20192;-60
2022/06/20 08:33:13;;;;;;;9.07;4.60;;;26.30;92.90;;;;;;5109673;28;20192;-58
2022/06/20 08:35:42;;;;;;;15.95;5.25;;;26.30;92.50;;;;;;5109162;28;20190;-61
2022/06/20 08:38:17;;;;;;;9.40;4.85;;;26.30;92.70;;;;;;5110769;28;20191;-64
2022/06/20 08:41:12;;;;;;;10.48;4.85;;;26.40;93.00;;;;;;5110729;28;20213;-63
2022/06/20 08:44:00;;;;;;;14.80;4.95;;;26.50;92.10;;;;;;5110542;28;20204;-65
2022/06/20 08:46:40;;;;;;;9.82;4.47;;;26.50;91.60;;;;;;5105926;27;20184;-63
2022/06/20 08:49:17;;;;;;;13.35;4.50;;;26.60;91.90;;;;;;5091247;28;20180;-62
2022/06/20 08:52:19;;;;;;;9.65;4.50;;;26.80;91.80;;;;;;5091401;28;20261;-60
2022/06/20 08:54:50;;;;;;;11.40;5.00;;;27.00;91.40;;;;;;5074546;28;20246;-62
2022/06/20 08:57:47;;;;;;;18.80;5.72;;;27.30;91.00;;;;;;5072281;28;20635;-62
2022/06/20 09:00:24;;;;;;;10.15;4.30;;;27.40;90.50;;;;;;5104831;28;20192;-63
2022/06/20 09:03:09;;;;;;;14.45;4.28;;;27.30;90.10;;;;;;5110910;28;20221;-62
2022/06/20 09:05:56;;;;;;;11.70;4.75;;;27.10;89.90;;;;;;5110728;28;20195;-61
2022/06/20 09:08:25;;;;;;;10.85;4.75;;;27.20;90.10;;;;;;5109677;28;20233;-63
2022/06/20 09:11:46;;;;;;;13.60;5.18;;;27.30;89.40;;;;;;5110620;28;20639;-64
2022/06/20 09:14:14;;;;;;;16.88;5.13;;;27.40;89.70;;;;;;5008041;28;20183;-61
2022/06/20 09:16:58;;;;;;;21.92;6.20;;;27.60;89.10;;;;;;5007684;28;20219;-63
2022/06/20 09:19:48;;;;;;;10.13;4.55;;;27.70;88.00;;;;;;5055240;28;20354;-61
2022/06/20 09:22:27;;;;;;;12.85;4.35;;;27.90;87.90;;;;;;5089751;28;20236;-60
2022/06/20 09:25:18;;;;;;;8.63;4.03;;;28.10;86.10;;;;;;5090160;28;20239;-61
2022/06/20 09:28:22;;;;;;;12.30;4.40;;;28.20;86.20;;;;;;5071649;28;20220;-60
2022/06/20 09:30:53;;;;;;;6.22;4.40;;;28.20;85.40;;;;;;5089407;28;20183;-61
2022/06/20 09:33:39;;;;;;;14.55;4.45;;;28.40;85.30;;;;;;5089857;28;20272;-61
2022/06/20 09:36:14;;;;;;;18.98;4.35;;;28.50;84.40;;;;;;5089986;28;20181;-63
2022/06/20 09:39:01;;;;;;;22.00;5.00;;;28.70;83.30;;;;;;5071731;28;20237;-62
2022/06/20 09:41:31;;;;;;;7.00;4.60;;;28.70;82.50;;;;;;5090183;28;20249;-60
2022/06/20 09:44:09;;;;;;;19.52;5.18;;;28.70;81.00;;;;;;5090536;28;20260;-59
2022/06/20 09:46:47;;;;;;;16.00;5.25;;;28.90;80.00;;;;;;5100676;28;20236;-60
2022/06/20 09:49:33;;;;;;;16.65;6.00;;;29.10;79.40;;;;;;5130071;28;20168;-60
2022/06/20 09:52:08;;;;;;;8.82;3.95;;;29.10;79.20;;;;;;5115674;28;20184;-60
2022/06/20 09:54:43;;;;;;;13.68;4.38;;;29.00;78.00;;;;;;5130921;28;20627;-61
2022/06/20 09:58:00;;;;;;;11.68;4.85;;;29.10;77.70;;;;;;5110063;28;20184;-61
2022/06/20 10:00:34;;;;;;;5.35;3.60;;;29.10;77.30;;;;;;5036458;28;20203;-60
2022/06/20 10:03:27;;;;;;;9.82;4.15;;;29.20;76.80;;;;;;5074975;28;20514;-61
2022/06/20 10:06:17;;;;;;;12.18;3.95;;;29.20;75.70;;;;;;5109964;28;20291;-59
2022/06/20 10:09:01;;;;;;;13.02;3.70;;;29.30;73.80;;;;;;5057983;28;20192;-60
2022/06/20 10:11:31;;;;;;;14.27;4.22;;;29.40;73.50;;;;;;5110787;28;20176;-61
2022/06/20 10:14:08;;;;;;;10.68;4.53;;;29.40;75.10;;;;;;5113952;28;20574;-61
2022/06/20 10:16:45;;;;;;;12.52;4.70;;;29.60;76.20;;;;;;5113522;28;20191;-61
2022/06/20 10:19:28;;;;;;;11.27;3.95;;;29.70;77.30;;;;;;5113675;28;20192;-62
2022/06/20 10:22:23;;;;;;;14.18;4.30;;;29.80;75.40;;;;;;5114017;28;20177;-59
2022/06/20 10:25:03;;;;;;;13.88;4.90;;;29.90;75.70;;;;;;5113282;28;20236;-60
2022/06/20 10:27:45;;;;;;;12.27;4.88;;;30.00;75.00;;;;;;5113969;28;20263;-59
2022/06/20 10:30:47;;;;;;;11.48;3.97;;;30.00;74.30;;;;;;5113441;28;20438;-61
2022/06/20 10:33:30;;;;;;;6.90;3.65;;;30.20;73.90;;;;;;5097332;28;20617;-61
2022/06/20 10:36:21;;;;;;;8.55;3.72;;;30.10;73.30;;;;;;5113906;28;20176;-61
2022/06/20 10:39:19;;;;;;;20.17;5.80;;;30.00;72.40;;;;;;5095486;28;20190;-59
2022/06/20 10:41:50;;;;;;;8.73;4.10;;;30.20;73.20;;;;;;5022924;28;20235;-60
2022/06/20 10:44:23;;;;;;;12.20;4.07;;;30.40;72.20;;;;;;5113134;28;20200;-63
2022/06/20 10:47:03;;;;;;;16.67;6.25;;;30.30;71.10;;;;;;5120482;27;20187;-60
2022/06/20 10:49:59;;;;;;;15.38;5.60;;;30.40;71.30;;;;;;5134372;27;20178;-63
2022/06/20 10:52:27;;;;;;;10.52;3.95;;;30.60;69.70;;;;;;5133950;27;20673;-61
2022/06/20 10:55:17;;;;;;;11.90;3.55;;;30.70;68.20;;;;;;5132682;27;20244;-61
2022/06/20 10:57:56;;;;;;;12.23;3.88;;;30.60;68.40;;;;;;5113555;28;20188;-61
2022/06/20 11:00:26;;;;;;;16.17;3.92;;;30.70;67.40;;;;;;5112880;28;20204;-62
2022/06/20 11:03:11;;;;;;;8.10;3.97;;;31.00;67.40;;;;;;5114018;28;20257;-63
2022/06/20 11:05:40;;;;;;;12.95;5.90;;;31.20;66.80;;;;;;5112369;28;20216;-63
2022/06/20 11:08:43;;;;;;;11.65;4.38;;;31.40;65.80;;;;;;5094417;28;20616;-63
2022/06/20 11:11:24;;;;;;;12.77;4.20;;;31.90;65.90;;;;;;5113230;28;20180;-62
2022/06/20 11:14:05;;;;;;;7.57;3.88;;;32.30;64.00;;;;;;5113390;28;20184;-61
2022/06/20 11:16:59;;;;;;;15.68;4.07;;;32.50;62.80;;;;;;5113657;28;20188;-60
2022/06/20 11:19:28;;;;;;;11.10;3.28;;;32.50;62.90;;;;;;5113162;28;20292;-60
2022/06/20 11:22:20;;;;;;;16.75;3.72;;;32.70;61.60;;;;;;5112496;28;20200;-61
2022/06/20 11:24:49;;;;;;;22.17;4.70;;;32.70;60.40;;;;;;5112607;28;20228;-62
2022/06/20 11:27:36;;;;;;;9.88;4.22;;;33.90;59.60;;;;;;5112923;28;20191;-62
2022/06/20 11:30:16;;;;;;;12.75;4.03;;;35.90;56.20;;;;;;5112780;28;20268;-62
2022/06/20 11:33:14;;;;;;;10.95;3.80;;;37.50;51.20;;;;;;5113164;28;20244;-61
2022/06/20 11:36:03;;;;;;;10.13;3.85;;;38.90;47.70;;;;;;5060392;28;20287;-60
2022/06/20 11:38:46;;;;;;;6.30;3.45;;;39.90;45.20;;;;;;5113317;28;20176;-60
2022/06/20 11:41:19;;;;;;;13.32;3.80;;;40.60;43.90;;;;;;5112118;28;20676;-64
2022/06/20 11:44:14;;;;;;;8.77;3.20;;;40.90;42.80;;;;;;5112461;28;20198;-63
2022/06/20 11:47:22;;;;;;;8.23;2.95;;;41.20;40.90;;;;;;5118467;27;20206;-60
2022/06/20 11:50:13;;;;;;;9.52;3.60;;;41.60;39.70;;;;;;5133664;27;20585;-61
2022/06/20 11:53:01;;;;;;;10.27;3.53;;;41.50;39.00;;;;;;5132798;27;20531;-62
2022/06/20 11:55:58;;;;;;;11.70;3.25;;;41.60;38.50;;;;;;5126994;27;20269;-62
2022/06/20 11:58:42;;;;;;;14.18;3.38;;;42.40;37.80;;;;;;5103530;28;20211;-61
2022/06/20 12:01:19;;;;;;;7.07;3.85;;;43.50;36.50;;;;;;5092752;28;20611;-64
2022/06/20 12:04:43;;;;;;;9.23;3.08;;;43.50;36.40;;;;;;5092113;28;20612;-63
2022/06/20 12:07:19;;;;;;;8.00;2.70;;;43.80;35.70;;;;;;5059265;28;20273;-64
2022/06/20 12:09:49;;;;;;;2.35;1.67;;;44.50;34.40;;;;;;5095643;28;20171;-61
2022/06/20 12:12:31;;;;;;;1.42;1.13;;;44.80;34.20;;;;;;5112221;28;20176;-62
2022/06/20 12:15:22;;;;;;;0.40;0.40;;;44.20;34.20;;;;;;5092200;28;20592;-60
2022/06/20 12:17:57;;;;;;;0.40;0.40;;;44.70;33.80;;;;;;5123538;27;20573;-62
2022/06/20 12:23:19;;;;;;;0.28;0.28;;;44.90;33.80;;;;;;5132264;27;20186;-62
2022/06/20 12:26:08;;;;;;;0.17;0.17;;;44.80;32.80;;;;;;5132183;27;20226;-63
2022/06/20 12:28:38;;;;;;;3.60;3.10;;;45.70;32.60;;;;;;5132627;27;20183;-63
2022/06/20 12:31:29;;;;;;;0.45;0.45;;;45.70;32.50;;;;;;5132377;27;20657;-60
2022/06/20 12:34:13;;;;;;;5.63;0.85;;;45.90;31.70;;;;;;5119264;27;20624;-61
2022/06/20 12:36:43;;;;;;;0.10;0.10;;;45.30;32.20;;;;;;5110579;28;20646;-61
2022/06/20 12:39:22;;;;;;;4.78;1.20;;;45.40;32.90;;;;;;5111777;28;20188;-58
2022/06/20 12:41:55;;;;;;;0.10;0.10;;;45.70;31.70;;;;;;5111752;28;20183;-62
2022/06/20 12:44:43;;;;;;;0.20;0.20;;;45.60;32.80;;;;;;5110591;28;20168;-68
2022/06/20 12:47:24;;;;;;;5.00;0.98;;;46.70;31.00;;;;;;5105043;28;20238;-59
2022/06/20 12:50:02;;;;;;;0.20;0.20;;;46.00;30.80;;;;;;5095192;28;20689;-59
2022/06/20 12:52:59;;;;;;;0.52;0.52;;;46.80;31.00;;;;;;5090500;28;20255;-59
2022/06/20 12:55:34;;;;;;;0.10;0.10;;;47.00;30.30;;;;;;5023518;28;20711;-62
2022/06/20 12:58:22;;;;;;;0.75;0.43;;;46.60;30.40;;;;;;5110864;28;20304;-64
2022/06/20 13:00:55;;;;;;;0.10;0.10;;;45.60;31.50;;;;;;5111457;28;20623;-58
2022/06/20 13:03:24;;;;;;;0.20;0.20;;;45.90;31.60;;;;;;5110260;28;20651;-58
2022/06/20 13:06:08;;;;;;;0.90;0.65;;;46.60;30.80;;;;;;5111215;28;20214;-59
2022/06/20 13:08:34;;;;;;;0.10;0.10;;;46.50;30.60;;;;;;5110559;28;20559;-57
2022/06/20 13:11:20;;;;;;;3.28;3.03;;;46.70;30.20;;;;;;5110763;28;20189;-58
2022/06/20 13:14:42;;;;;;;0.70;0.70;;;46.90;30.40;;;;;;5110730;28;20175;-60
2022/06/20 13:17:17;;;;;;;0.98;0.65;;;47.20;29.90;;;;;;5018787;28;20186;-58
2022/06/20 13:20:13;;;;;;;0.10;0.10;;;47.10;29.60;;;;;;5028262;28;20332;-58
2022/06/20 13:22:48;;;;;;;0.17;0.17;;;47.60;29.40;;;;;;5116849;27;20191;-57
2022/06/20 13:25:35;;;;;;;1.27;1.17;;;47.10;29.70;;;;;;5131371;28;20656;-57
2022/06/20 13:28:21;;;;;;;0.52;0.52;;;47.00;30.00;;;;;;5130984;28;20173;-58
2022/06/20 13:30:49;;;;;;;0.10;0.10;;;46.30;31.00;;;;;;5112390;28;20231;-59
2022/06/20 13:33:29;;;;;;;1.73;1.23;;;46.10;30.40;;;;;;5130851;28;20200;-57
2022/06/20 13:36:04;;;;;;;0.43;0.43;;;45.80;30.30;;;;;;5131040;28;20178;-58
2022/06/20 13:38:49;;;;;;;0.20;0.20;;;46.10;30.70;;;;;;5130915;28;20194;-58
2022/06/20 13:41:23;;;;;;;5.07;0.55;;;46.10;30.90;;;;;;5131290;28;20229;-59
2022/06/20 13:44:13;;;;;;;0.20;0.20;;;46.50;29.80;;;;;;5130862;28;20239;-58
2022/06/20 13:47:09;;;;;;;0.10;0.10;;;46.80;29.70;;;;;;5126648;27;20258;-58